sensor_id;sensor_type;location;lat;lon;timestamp;pressure;altitude;pressure_sealevel;temperature;humidity
23361;BME280;11852;50.082;18.554;2022-11-20T00:00:56;98254.5;;;-3.66;75.69
23361;BME280;11852;50.082;18.554;2022-11-20T00:02:04;98253.0;;;-3.65;75.64
23361;BME280;11852;50.082;18.554;2022-11-20T00:03:13;98249.5;;;-3.7;75.71
23361;BME280;11852;50.082;18.554;2022-11-20T00:04:21;98247.5;;;-3.7;75.93
23361;BME280;11852;50.082;18.554;2022-11-20T00:05:28;98248.5;;;-3.73;75.99
23361;BME280;11852;50.082;18.554;2022-11-20T00:06:35;98245.5;;;-3.7;75.97
23361;BME280;11852;50.082;18.554;2022-11-20T00:07:43;98244.5;;;-3.68;76.01
23361;BME280;11852;50.082;18.554;2022-11-20T00:08:50;98243.5;;;-3.67;76.19
23361;BME280;11852;50.082;18.554;2022-11-20T00:09:58;98244.99;;;-3.63;76.18
23361;BME280;11852;50.082;18.554;2022-11-20T00:12:20;98245.49;;;-3.59;76.07
23361;BME280;11852;50.082;18.554;2022-11-20T00:13:27;98248.0;;;-3.58;75.89
23361;BME280;11852;50.082;18.554;2022-11-20T00:14:34;98244.49;;;-3.58;75.72
23361;BME280;11852;50.082;18.554;2022-11-20T00:15:41;98244.0;;;-3.59;75.69
23361;BME280;11852;50.082;18.554;2022-11-20T00:16:49;98244.0;;;-3.56;75.51
23361;BME280;11852;50.082;18.554;2022-11-20T00:17:56;98244.49;;;-3.57;75.6
23361;BME280;11852;50.082;18.554;2022-11-20T00:19:03;98244.99;;;-3.55;75.48
23361;BME280;11852;50.082;18.554;2022-11-20T00:20:10;98243.5;;;-3.55;75.53
23361;BME280;11852;50.082;18.554;2022-11-20T00:21:19;98244.5;;;-3.51;75.46
23361;BME280;11852;50.082;18.554;2022-11-20T00:22:25;98242.01;;;-3.53;75.5
23361;BME280;11852;50.082;18.554;2022-11-20T00:23:32;98240.5;;;-3.53;75.54
23361;BME280;11852;50.082;18.554;2022-11-20T00:24:39;98242.01;;;-3.52;75.48
23361;BME280;11852;50.082;18.554;2022-11-20T00:25:47;98238.5;;;-3.54;75.49
23361;BME280;11852;50.082;18.554;2022-11-20T00:26:54;98238.5;;;-3.52;75.49
23361;BME280;11852;50.082;18.554;2022-11-20T00:28:02;98237.0;;;-3.53;75.6
23361;BME280;11852;50.082;18.554;2022-11-20T00:29:09;98238.0;;;-3.52;75.64
23361;BME280;11852;50.082;18.554;2022-11-20T00:30:16;98237.0;;;-3.51;75.6
23361;BME280;11852;50.082;18.554;2022-11-20T00:31:24;98236.5;;;-3.48;75.5
23361;BME280;11852;50.082;18.554;2022-11-20T00:32:31;98235.5;;;-3.47;75.49
23361;BME280;11852;50.082;18.554;2022-11-20T00:33:38;98234.5;;;-3.45;75.51
23361;BME280;11852;50.082;18.554;2022-11-20T00:34:45;98235.5;;;-3.43;75.46
23361;BME280;11852;50.082;18.554;2022-11-20T00:35:52;98233.0;;;-3.43;75.58
23361;BME280;11852;50.082;18.554;2022-11-20T00:37:00;98233.5;;;-3.39;75.54
23361;BME280;11852;50.082;18.554;2022-11-20T00:38:07;98233.5;;;-3.34;75.6
23361;BME280;11852;50.082;18.554;2022-11-20T00:39:14;98235.0;;;-3.31;75.4
23361;BME280;11852;50.082;18.554;2022-11-20T00:40:22;98237.5;;;-3.27;75.48
23361;BME280;11852;50.082;18.554;2022-11-20T00:41:31;98235.0;;;-3.25;75.57
23361;BME280;11852;50.082;18.554;2022-11-20T00:42:39;98233.0;;;-3.21;75.51
23361;BME280;11852;50.082;18.554;2022-11-20T00:43:46;98236.0;;;-3.19;75.43
23361;BME280;11852;50.082;18.554;2022-11-20T00:44:54;98235.0;;;-3.17;75.47
23361;BME280;11852;50.082;18.554;2022-11-20T00:46:06;98237.0;;;-3.18;75.63
23361;BME280;11852;50.082;18.554;2022-11-20T00:47:12;98235.5;;;-3.16;75.54
23361;BME280;11852;50.082;18.554;2022-11-20T00:48:19;98236.0;;;-3.18;75.6
23361;BME280;11852;50.082;18.554;2022-11-20T00:49:26;98234.0;;;-3.18;75.71
23361;BME280;11852;50.082;18.554;2022-11-20T00:50:33;98231.99;;;-3.2;75.53
23361;BME280;11852;50.082;18.554;2022-11-20T00:51:41;98233.5;;;-3.18;75.37
23361;BME280;11852;50.082;18.554;2022-11-20T00:52:48;98234.5;;;-3.18;75.49
23361;BME280;11852;50.082;18.554;2022-11-20T00:53:56;98234.5;;;-3.2;75.3
23361;BME280;11852;50.082;18.554;2022-11-20T00:55:03;98234.0;;;-3.2;75.25
23361;BME280;11852;50.082;18.554;2022-11-20T00:56:11;98234.0;;;-3.19;75.28
23361;BME280;11852;50.082;18.554;2022-11-20T00:57:17;98234.0;;;-3.22;75.46
23361;BME280;11852;50.082;18.554;2022-11-20T00:58:27;98232.49;;;-3.25;75.42
23361;BME280;11852;50.082;18.554;2022-11-20T00:59:32;98235.0;;;-3.29;75.29
23361;BME280;11852;50.082;18.554;2022-11-20T01:00:39;98231.5;;;-3.33;75.38
23361;BME280;11852;50.082;18.554;2022-11-20T01:01:47;98230.01;;;-3.37;75.36
23361;BME280;11852;50.082;18.554;2022-11-20T01:02:55;98229.0;;;-3.42;75.39
23361;BME280;11852;50.082;18.554;2022-11-20T01:04:02;98232.0;;;-3.45;75.39
23361;BME280;11852;50.082;18.554;2022-11-20T01:05:10;98229.51;;;-3.48;75.46
23361;BME280;11852;50.082;18.554;2022-11-20T01:07:29;98227.5;;;-3.59;75.61
23361;BME280;11852;50.082;18.554;2022-11-20T01:08:37;98227.5;;;-3.58;75.62
23361;BME280;11852;50.082;18.554;2022-11-20T01:09:44;98226.0;;;-3.61;76.11
23361;BME280;11852;50.082;18.554;2022-11-20T01:10:51;98223.5;;;-3.61;76.28
23361;BME280;11852;50.082;18.554;2022-11-20T01:11:59;98223.0;;;-3.63;76.38
23361;BME280;11852;50.082;18.554;2022-11-20T01:13:12;98220.49;;;-3.61;76.51
23361;BME280;11852;50.082;18.554;2022-11-20T01:14:19;98218.5;;;-3.66;76.64
23361;BME280;11852;50.082;18.554;2022-11-20T01:15:26;98219.5;;;-3.66;76.55
23361;BME280;11852;50.082;18.554;2022-11-20T01:16:35;98218.01;;;-3.7;76.51
23361;BME280;11852;50.082;18.554;2022-11-20T01:17:41;98220.5;;;-3.7;76.43
23361;BME280;11852;50.082;18.554;2022-11-20T01:18:50;98219.0;;;-3.72;76.46
23361;BME280;11852;50.082;18.554;2022-11-20T01:19:56;98219.99;;;-3.73;76.5
23361;BME280;11852;50.082;18.554;2022-11-20T01:21:07;98219.99;;;-3.72;76.44
23361;BME280;11852;50.082;18.554;2022-11-20T01:22:14;98219.99;;;-3.76;76.46
23361;BME280;11852;50.082;18.554;2022-11-20T01:23:22;98219.99;;;-3.81;76.64
23361;BME280;11852;50.082;18.554;2022-11-20T01:24:29;98219.0;;;-3.8;76.61
23361;BME280;11852;50.082;18.554;2022-11-20T01:25:36;98218.5;;;-3.77;76.71
23361;BME280;11852;50.082;18.554;2022-11-20T01:26:44;98215.0;;;-3.74;76.74
23361;BME280;11852;50.082;18.554;2022-11-20T01:27:50;98214.5;;;-3.72;76.63
23361;BME280;11852;50.082;18.554;2022-11-20T01:28:58;98211.5;;;-3.7;76.66
23361;BME280;11852;50.082;18.554;2022-11-20T01:30:05;98209.5;;;-3.74;76.71
23361;BME280;11852;50.082;18.554;2022-11-20T01:31:16;98210.5;;;-3.82;76.58
23361;BME280;11852;50.082;18.554;2022-11-20T01:32:22;98208.5;;;-3.78;76.51
23361;BME280;11852;50.082;18.554;2022-11-20T01:33:29;98207.49;;;-3.74;76.5
23361;BME280;11852;50.082;18.554;2022-11-20T01:34:36;98206.5;;;-3.74;76.58
23361;BME280;11852;50.082;18.554;2022-11-20T01:35:44;98197.0;;;-3.83;76.06
23361;BME280;11852;50.082;18.554;2022-11-20T01:36:52;98197.5;;;-3.89;75.96
23361;BME280;11852;50.082;18.554;2022-11-20T01:37:59;98195.49;;;-3.93;75.88
23361;BME280;11852;50.082;18.554;2022-11-20T01:40:18;98193.5;;;-4.0;76.05
23361;BME280;11852;50.082;18.554;2022-11-20T01:41:31;98189.5;;;-3.96;76.33
23361;BME280;11852;50.082;18.554;2022-11-20T01:42:51;98182.5;;;-3.96;76.5
23361;BME280;11852;50.082;18.554;2022-11-20T01:43:53;98179.0;;;-3.98;76.96
23361;BME280;11852;50.082;18.554;2022-11-20T01:45:01;98177.0;;;-3.97;77.14
23361;BME280;11852;50.082;18.554;2022-11-20T01:46:14;98178.0;;;-3.99;77.28
23361;BME280;11852;50.082;18.554;2022-11-20T01:47:29;98176.5;;;-3.99;77.67
23361;BME280;11852;50.082;18.554;2022-11-20T01:48:38;98179.51;;;-4.0;77.72
23361;BME280;11852;50.082;18.554;2022-11-20T01:49:45;98184.0;;;-4.03;77.86
23361;BME280;11852;50.082;18.554;2022-11-20T01:50:51;98184.0;;;-4.04;77.94
23361;BME280;11852;50.082;18.554;2022-11-20T01:52:00;98187.0;;;-4.11;78.01
23361;BME280;11852;50.082;18.554;2022-11-20T01:53:07;98187.0;;;-4.11;78.01
23361;BME280;11852;50.082;18.554;2022-11-20T01:55:26;98187.0;;;-4.19;78.28
23361;BME280;11852;50.082;18.554;2022-11-20T01:56:33;98190.0;;;-4.2;78.35
23361;BME280;11852;50.082;18.554;2022-11-20T01:57:40;98191.0;;;-4.2;78.43
23361;BME280;11852;50.082;18.554;2022-11-20T01:58:48;98194.0;;;-4.2;78.39
23361;BME280;11852;50.082;18.554;2022-11-20T01:59:56;98192.0;;;-4.22;78.49
23361;BME280;11852;50.082;18.554;2022-11-20T02:01:02;98194.99;;;-4.19;78.48
23361;BME280;11852;50.082;18.554;2022-11-20T02:02:09;98194.99;;;-4.18;78.56
23361;BME280;11852;50.082;18.554;2022-11-20T02:03:16;98193.0;;;-4.17;78.65
23361;BME280;11852;50.082;18.554;2022-11-20T02:04:23;98193.0;;;-4.22;78.81
23361;BME280;11852;50.082;18.554;2022-11-20T02:05:39;98194.0;;;-4.17;78.67
23361;BME280;11852;50.082;18.554;2022-11-20T02:07:57;98194.99;;;-4.14;78.82
23361;BME280;11852;50.082;18.554;2022-11-20T02:09:04;98196.0;;;-4.14;78.81
23361;BME280;11852;50.082;18.554;2022-11-20T02:10:12;98194.0;;;-4.14;78.82
23361;BME280;11852;50.082;18.554;2022-11-20T02:11:19;98194.99;;;-4.15;78.92
23361;BME280;11852;50.082;18.554;2022-11-20T02:12:31;98194.0;;;-4.15;78.99
23361;BME280;11852;50.082;18.554;2022-11-20T02:13:44;98194.99;;;-4.17;79.01
23361;BME280;11852;50.082;18.554;2022-11-20T02:14:51;98196.0;;;-4.15;79.01
23361;BME280;11852;50.082;18.554;2022-11-20T02:15:58;98197.0;;;-4.18;79.18
23361;BME280;11852;50.082;18.554;2022-11-20T02:17:06;98198.0;;;-4.17;79.19
23361;BME280;11852;50.082;18.554;2022-11-20T02:18:14;98198.0;;;-4.14;79.15
23361;BME280;11852;50.082;18.554;2022-11-20T02:19:26;98211.0;;;-4.09;80.56
23361;BME280;11852;50.082;18.554;2022-11-20T02:20:31;98211.5;;;-4.06;80.61
23361;BME280;11852;50.082;18.554;2022-11-20T02:25:17;98212.0;;;-4.01;80.35
23361;BME280;11852;50.082;18.554;2022-11-20T02:26:25;98212.0;;;-4.01;80.33
23361;BME280;11852;50.082;18.554;2022-11-20T02:27:32;98214.0;;;-4.01;80.29
23361;BME280;11852;50.082;18.554;2022-11-20T02:28:39;98218.5;;;-3.99;80.09
23361;BME280;11852;50.082;18.554;2022-11-20T02:30:58;98222.5;;;-3.99;80.17
23361;BME280;11852;50.082;18.554;2022-11-20T02:32:16;98222.0;;;-3.96;80.15
23361;BME280;11852;50.082;18.554;2022-11-20T02:33:14;98219.99;;;-3.96;80.19
23361;BME280;11852;50.082;18.554;2022-11-20T02:34:21;98221.0;;;-3.93;80.13
23361;BME280;11852;50.082;18.554;2022-11-20T02:36:36;98222.0;;;-3.92;80.13
23361;BME280;11852;50.082;18.554;2022-11-20T02:37:43;98219.99;;;-3.89;80.15
23361;BME280;11852;50.082;18.554;2022-11-20T02:38:50;98222.0;;;-3.93;80.44
23361;BME280;11852;50.082;18.554;2022-11-20T02:39:57;98221.0;;;-3.89;80.26
23361;BME280;11852;50.082;18.554;2022-11-20T02:41:04;98221.0;;;-3.88;80.21
23361;BME280;11852;50.082;18.554;2022-11-20T02:42:11;98223.5;;;-3.88;80.21
23361;BME280;11852;50.082;18.554;2022-11-20T02:43:19;98221.5;;;-3.82;80.15
23361;BME280;11852;50.082;18.554;2022-11-20T02:44:27;98222.0;;;-3.82;80.25
23361;BME280;11852;50.082;18.554;2022-11-20T02:45:34;98226.0;;;-3.76;80.19
23361;BME280;11852;50.082;18.554;2022-11-20T02:46:41;98225.0;;;-3.8;80.2
23361;BME280;11852;50.082;18.554;2022-11-20T02:47:48;98226.0;;;-3.73;79.96
23361;BME280;11852;50.082;18.554;2022-11-20T02:48:55;98225.0;;;-3.7;79.97
23361;BME280;11852;50.082;18.554;2022-11-20T02:50:03;98224.0;;;-3.64;79.9
23361;BME280;11852;50.082;18.554;2022-11-20T02:51:09;98225.0;;;-3.63;79.78
23361;BME280;11852;50.082;18.554;2022-11-20T02:52:16;98226.0;;;-3.61;79.78
23361;BME280;11852;50.082;18.554;2022-11-20T02:53:24;98225.0;;;-3.63;79.75
23361;BME280;11852;50.082;18.554;2022-11-20T02:54:31;98224.0;;;-3.63;79.51
23361;BME280;11852;50.082;18.554;2022-11-20T02:55:38;98225.0;;;-3.62;79.48
23361;BME280;11852;50.082;18.554;2022-11-20T02:56:45;98223.0;;;-3.64;79.48
23361;BME280;11852;50.082;18.554;2022-11-20T02:57:52;98223.0;;;-3.64;79.4
23361;BME280;11852;50.082;18.554;2022-11-20T02:58:59;98224.0;;;-3.64;79.26
23361;BME280;11852;50.082;18.554;2022-11-20T03:00:07;98226.0;;;-3.73;77.9
23361;BME280;11852;50.082;18.554;2022-11-20T03:01:15;98225.0;;;-3.77;77.74
23361;BME280;11852;50.082;18.554;2022-11-20T03:02:22;98222.5;;;-3.78;77.6
23361;BME280;11852;50.082;18.554;2022-11-20T03:03:30;98222.5;;;-3.82;77.77
23361;BME280;11852;50.082;18.554;2022-11-20T03:04:37;98220.0;;;-3.86;77.64
23361;BME280;11852;50.082;18.554;2022-11-20T03:05:44;98222.0;;;-3.83;77.65
23361;BME280;11852;50.082;18.554;2022-11-20T03:06:51;98220.0;;;-3.85;77.67
23361;BME280;11852;50.082;18.554;2022-11-20T03:07:58;98222.0;;;-3.85;77.62
23361;BME280;11852;50.082;18.554;2022-11-20T03:09:05;98221.0;;;-3.94;77.51
23361;BME280;11852;50.082;18.554;2022-11-20T03:10:12;98223.0;;;-3.95;77.52
23361;BME280;11852;50.082;18.554;2022-11-20T03:11:20;98223.0;;;-4.01;77.61
23361;BME280;11852;50.082;18.554;2022-11-20T03:12:26;98224.0;;;-4.01;77.5
23361;BME280;11852;50.082;18.554;2022-11-20T03:13:34;98224.0;;;-4.04;77.6
23361;BME280;11852;50.082;18.554;2022-11-20T03:14:41;98225.0;;;-4.02;77.63
23361;BME280;11852;50.082;18.554;2022-11-20T03:15:48;98224.0;;;-4.01;77.72
23361;BME280;11852;50.082;18.554;2022-11-20T03:16:55;98223.0;;;-3.99;77.83
23361;BME280;11852;50.082;18.554;2022-11-20T03:18:02;98224.0;;;-4.01;77.76
23361;BME280;11852;50.082;18.554;2022-11-20T03:19:10;98223.0;;;-4.02;77.86
23361;BME280;11852;50.082;18.554;2022-11-20T03:20:18;98222.0;;;-3.99;77.72
23361;BME280;11852;50.082;18.554;2022-11-20T03:21:25;98222.0;;;-4.0;77.7
23361;BME280;11852;50.082;18.554;2022-11-20T03:22:32;98222.0;;;-3.97;77.57
23361;BME280;11852;50.082;18.554;2022-11-20T03:23:39;98222.0;;;-4.03;77.63
23361;BME280;11852;50.082;18.554;2022-11-20T03:24:46;98222.0;;;-4.03;77.57
23361;BME280;11852;50.082;18.554;2022-11-20T03:25:53;98222.0;;;-4.03;77.69
23361;BME280;11852;50.082;18.554;2022-11-20T03:27:00;98222.0;;;-4.05;77.72
23361;BME280;11852;50.082;18.554;2022-11-20T03:28:07;98224.0;;;-4.03;77.61
23361;BME280;11852;50.082;18.554;2022-11-20T03:29:14;98221.0;;;-4.03;77.56
23361;BME280;11852;50.082;18.554;2022-11-20T03:30:22;98222.0;;;-4.03;77.6
23361;BME280;11852;50.082;18.554;2022-11-20T03:31:30;98223.0;;;-4.04;77.67
23361;BME280;11852;50.082;18.554;2022-11-20T03:32:38;98224.0;;;-4.07;77.7
23361;BME280;11852;50.082;18.554;2022-11-20T03:33:45;98223.0;;;-4.07;77.68
23361;BME280;11852;50.082;18.554;2022-11-20T03:34:52;98224.0;;;-4.07;77.89
23361;BME280;11852;50.082;18.554;2022-11-20T03:36:03;98223.0;;;-4.07;77.95
23361;BME280;11852;50.082;18.554;2022-11-20T03:37:09;98226.0;;;-4.11;78.08
23361;BME280;11852;50.082;18.554;2022-11-20T03:38:16;98223.0;;;-4.22;78.44
23361;BME280;11852;50.082;18.554;2022-11-20T03:39:23;98225.0;;;-4.24;78.6
23361;BME280;11852;50.082;18.554;2022-11-20T03:40:31;98226.0;;;-4.24;78.65
23361;BME280;11852;50.082;18.554;2022-11-20T03:41:39;98226.0;;;-4.28;78.79
23361;BME280;11852;50.082;18.554;2022-11-20T03:42:46;98226.0;;;-4.22;78.56
23361;BME280;11852;50.082;18.554;2022-11-20T03:43:58;98224.0;;;-4.21;78.61
23361;BME280;11852;50.082;18.554;2022-11-20T03:45:03;98224.0;;;-4.26;78.75
23361;BME280;11852;50.082;18.554;2022-11-20T03:46:10;98224.0;;;-4.21;78.63
23361;BME280;11852;50.082;18.554;2022-11-20T03:47:17;98226.0;;;-4.16;78.69
23361;BME280;11852;50.082;18.554;2022-11-20T03:48:24;98226.0;;;-4.05;78.64
23361;BME280;11852;50.082;18.554;2022-11-20T03:49:31;98226.0;;;-4.06;78.52
23361;BME280;11852;50.082;18.554;2022-11-20T03:50:38;98224.0;;;-4.07;78.35
23361;BME280;11852;50.082;18.554;2022-11-20T03:51:46;98225.0;;;-4.1;78.27
23361;BME280;11852;50.082;18.554;2022-11-20T03:52:53;98223.0;;;-4.18;78.34
23361;BME280;11852;50.082;18.554;2022-11-20T03:54:01;98224.0;;;-4.21;78.26
23361;BME280;11852;50.082;18.554;2022-11-20T03:55:07;98225.0;;;-4.28;78.7
23361;BME280;11852;50.082;18.554;2022-11-20T03:56:15;98224.0;;;-4.35;78.86
23361;BME280;11852;50.082;18.554;2022-11-20T03:57:22;98225.0;;;-4.36;78.82
23361;BME280;11852;50.082;18.554;2022-11-20T03:58:29;98225.0;;;-4.49;79.13
23361;BME280;11852;50.082;18.554;2022-11-20T03:59:37;98225.0;;;-4.44;79.22
23361;BME280;11852;50.082;18.554;2022-11-20T04:00:45;98228.0;;;-4.41;80.01
23361;BME280;11852;50.082;18.554;2022-11-20T04:01:53;98228.0;;;-4.35;80.31
23361;BME280;11852;50.082;18.554;2022-11-20T04:03:01;98226.5;;;-4.35;80.43
23361;BME280;11852;50.082;18.554;2022-11-20T04:04:08;98225.0;;;-4.3;80.4
23361;BME280;11852;50.082;18.554;2022-11-20T04:05:16;98226.0;;;-4.24;80.61
23361;BME280;11852;50.082;18.554;2022-11-20T04:06:25;98226.0;;;-4.2;80.63
23361;BME280;11852;50.082;18.554;2022-11-20T04:07:31;98225.0;;;-4.17;80.58
23361;BME280;11852;50.082;18.554;2022-11-20T04:08:38;98225.0;;;-4.3;80.75
23361;BME280;11852;50.082;18.554;2022-11-20T04:09:46;98224.0;;;-4.36;80.77
23361;BME280;11852;50.082;18.554;2022-11-20T04:10:53;98225.0;;;-4.38;80.81
23361;BME280;11852;50.082;18.554;2022-11-20T04:12:00;98219.5;;;-4.37;81.13
23361;BME280;11852;50.082;18.554;2022-11-20T04:13:07;98217.51;;;-4.29;80.96
23361;BME280;11852;50.082;18.554;2022-11-20T04:14:14;98218.0;;;-4.26;81.11
23361;BME280;11852;50.082;18.554;2022-11-20T04:15:21;98215.0;;;-4.24;81.22
23361;BME280;11852;50.082;18.554;2022-11-20T04:16:29;98214.0;;;-4.22;81.22
23361;BME280;11852;50.082;18.554;2022-11-20T04:17:35;98213.0;;;-4.18;81.17
23361;BME280;11852;50.082;18.554;2022-11-20T04:18:43;98212.0;;;-4.14;81.07
23361;BME280;11852;50.082;18.554;2022-11-20T04:19:51;98213.0;;;-4.11;81.08
23361;BME280;11852;50.082;18.554;2022-11-20T04:20:58;98211.0;;;-4.11;80.99
23361;BME280;11852;50.082;18.554;2022-11-20T04:22:05;98211.0;;;-4.09;80.94
23361;BME280;11852;50.082;18.554;2022-11-20T04:23:15;98211.0;;;-4.09;80.93
23361;BME280;11852;50.082;18.554;2022-11-20T04:24:22;98212.0;;;-4.11;80.9
23361;BME280;11852;50.082;18.554;2022-11-20T04:25:29;98210.0;;;-4.14;80.99
23361;BME280;11852;50.082;18.554;2022-11-20T04:26:37;98209.0;;;-4.13;80.92
23361;BME280;11852;50.082;18.554;2022-11-20T04:27:43;98208.0;;;-4.15;80.93
23361;BME280;11852;50.082;18.554;2022-11-20T04:28:51;98209.0;;;-4.11;80.85
23361;BME280;11852;50.082;18.554;2022-11-20T04:29:57;98208.0;;;-4.1;80.82
23361;BME280;11852;50.082;18.554;2022-11-20T04:32:17;98208.0;;;-4.12;80.83
23361;BME280;11852;50.082;18.554;2022-11-20T04:33:24;98209.0;;;-4.09;80.83
23361;BME280;11852;50.082;18.554;2022-11-20T04:34:31;98208.0;;;-4.07;80.9
23361;BME280;11852;50.082;18.554;2022-11-20T04:35:38;98207.0;;;-4.05;80.85
23361;BME280;11852;50.082;18.554;2022-11-20T04:36:45;98205.01;;;-4.03;80.76
23361;BME280;11852;50.082;18.554;2022-11-20T04:37:53;98208.0;;;-4.01;80.76
23361;BME280;11852;50.082;18.554;2022-11-20T04:39:01;98205.01;;;-3.99;80.8
23361;BME280;11852;50.082;18.554;2022-11-20T04:40:07;98205.01;;;-3.95;80.78
23361;BME280;11852;50.082;18.554;2022-11-20T04:41:15;98204.0;;;-3.92;80.77
23361;BME280;11852;50.082;18.554;2022-11-20T04:42:27;98203.0;;;-3.91;80.76
23361;BME280;11852;50.082;18.554;2022-11-20T04:43:35;98204.0;;;-3.88;80.69
23361;BME280;11852;50.082;18.554;2022-11-20T04:44:42;98202.0;;;-3.86;80.68
23361;BME280;11852;50.082;18.554;2022-11-20T04:45:53;98201.0;;;-3.86;80.5
23361;BME280;11852;50.082;18.554;2022-11-20T04:47:00;98202.0;;;-3.88;80.46
23361;BME280;11852;50.082;18.554;2022-11-20T04:48:07;98203.0;;;-3.88;80.35
23361;BME280;11852;50.082;18.554;2022-11-20T04:49:15;98203.0;;;-3.87;80.32
23361;BME280;11852;50.082;18.554;2022-11-20T04:50:22;98190.5;;;-3.83;79.1
23361;BME280;11852;50.082;18.554;2022-11-20T04:51:29;98190.5;;;-3.86;78.99
23361;BME280;11852;50.082;18.554;2022-11-20T04:52:36;98189.0;;;-3.87;78.96
23361;BME280;11852;50.082;18.554;2022-11-20T04:53:45;98190.5;;;-3.94;78.9
23361;BME280;11852;50.082;18.554;2022-11-20T04:54:55;98187.5;;;-4.0;78.79
23361;BME280;11852;50.082;18.554;2022-11-20T04:56:04;98184.5;;;-4.04;78.51
23361;BME280;11852;50.082;18.554;2022-11-20T04:57:12;98181.99;;;-4.09;78.54
23361;BME280;11852;50.082;18.554;2022-11-20T04:58:17;98178.5;;;-4.1;78.74
23361;BME280;11852;50.082;18.554;2022-11-20T04:59:25;98175.0;;;-4.11;78.66
23361;BME280;11852;50.082;18.554;2022-11-20T05:00:31;98173.5;;;-4.14;78.51
23361;BME280;11852;50.082;18.554;2022-11-20T05:01:39;98174.5;;;-4.15;78.4
23361;BME280;11852;50.082;18.554;2022-11-20T05:02:46;98173.5;;;-4.14;78.39
23361;BME280;11852;50.082;18.554;2022-11-20T05:03:53;98170.49;;;-4.2;78.38
23361;BME280;11852;50.082;18.554;2022-11-20T05:05:01;98169.0;;;-4.24;78.58
23361;BME280;11852;50.082;18.554;2022-11-20T05:06:09;98170.0;;;-4.25;78.75
23361;BME280;11852;50.082;18.554;2022-11-20T05:07:17;98171.0;;;-4.24;78.82
23361;BME280;11852;50.082;18.554;2022-11-20T05:08:24;98171.0;;;-4.19;79.14
23361;BME280;11852;50.082;18.554;2022-11-20T05:09:31;98170.0;;;-4.18;79.13
23361;BME280;11852;50.082;18.554;2022-11-20T05:10:38;98168.0;;;-4.16;79.07
23361;BME280;11852;50.082;18.554;2022-11-20T05:11:45;98169.0;;;-4.18;79.12
23361;BME280;11852;50.082;18.554;2022-11-20T05:12:53;98169.0;;;-4.14;79.08
23361;BME280;11852;50.082;18.554;2022-11-20T05:14:00;98170.0;;;-4.14;79.18
23361;BME280;11852;50.082;18.554;2022-11-20T05:15:07;98169.0;;;-4.13;79.26
23361;BME280;11852;50.082;18.554;2022-11-20T05:16:16;98170.0;;;-4.12;79.35
23361;BME280;11852;50.082;18.554;2022-11-20T05:17:21;98171.0;;;-4.1;79.39
23361;BME280;11852;50.082;18.554;2022-11-20T05:18:28;98172.0;;;-4.1;79.32
23361;BME280;11852;50.082;18.554;2022-11-20T05:19:36;98171.0;;;-4.05;79.67
23361;BME280;11852;50.082;18.554;2022-11-20T05:20:43;98170.49;;;-4.07;79.68
23361;BME280;11852;50.082;18.554;2022-11-20T05:21:52;98169.0;;;-4.06;79.27
23361;BME280;11852;50.082;18.554;2022-11-20T05:22:59;98168.01;;;-4.07;79.35
23361;BME280;11852;50.082;18.554;2022-11-20T05:24:06;98167.01;;;-4.07;79.15
23361;BME280;11852;50.082;18.554;2022-11-20T05:25:13;98168.01;;;-4.12;79.17
23361;BME280;11852;50.082;18.554;2022-11-20T05:26:21;98167.01;;;-4.1;79.04
23361;BME280;11852;50.082;18.554;2022-11-20T05:27:28;98168.01;;;-4.11;79.1
23361;BME280;11852;50.082;18.554;2022-11-20T05:28:35;98168.01;;;-4.14;79.19
23361;BME280;11852;50.082;18.554;2022-11-20T05:29:42;98168.01;;;-4.14;79.2
23361;BME280;11852;50.082;18.554;2022-11-20T05:30:49;98167.01;;;-4.18;79.35
23361;BME280;11852;50.082;18.554;2022-11-20T05:31:56;98168.01;;;-4.16;79.26
23361;BME280;11852;50.082;18.554;2022-11-20T05:33:03;98167.01;;;-4.19;79.35
23361;BME280;11852;50.082;18.554;2022-11-20T05:34:10;98167.01;;;-4.18;79.31
23361;BME280;11852;50.082;18.554;2022-11-20T05:35:17;98164.0;;;-4.16;79.3
23361;BME280;11852;50.082;18.554;2022-11-20T05:36:25;98166.0;;;-4.16;79.29
23361;BME280;11852;50.082;18.554;2022-11-20T05:37:32;98166.0;;;-4.2;79.4
23361;BME280;11852;50.082;18.554;2022-11-20T05:38:39;98167.01;;;-4.22;79.29
23361;BME280;11852;50.082;18.554;2022-11-20T05:39:46;98166.0;;;-4.19;79.28
23361;BME280;11852;50.082;18.554;2022-11-20T05:40:53;98165.0;;;-4.18;79.37
23361;BME280;11852;50.082;18.554;2022-11-20T05:42:06;98165.0;;;-4.18;79.36
23361;BME280;11852;50.082;18.554;2022-11-20T05:43:13;98164.0;;;-4.17;79.4
23361;BME280;11852;50.082;18.554;2022-11-20T05:44:20;98162.0;;;-4.14;79.38
23361;BME280;11852;50.082;18.554;2022-11-20T05:45:28;98162.0;;;-4.14;79.39
23361;BME280;11852;50.082;18.554;2022-11-20T05:46:35;98161.0;;;-4.13;79.39
23361;BME280;11852;50.082;18.554;2022-11-20T05:47:42;98161.0;;;-4.11;79.49
23361;BME280;11852;50.082;18.554;2022-11-20T05:48:49;98159.0;;;-4.07;79.47
23361;BME280;11852;50.082;18.554;2022-11-20T05:49:57;98159.0;;;-4.08;79.38
23361;BME280;11852;50.082;18.554;2022-11-20T05:51:05;98158.0;;;-4.06;79.15
23361;BME280;11852;50.082;18.554;2022-11-20T05:52:11;98157.0;;;-4.07;79.03
23361;BME280;11852;50.082;18.554;2022-11-20T05:53:19;98155.01;;;-4.12;78.89
23361;BME280;11852;50.082;18.554;2022-11-20T05:54:27;98153.0;;;-4.1;78.85
23361;BME280;11852;50.082;18.554;2022-11-20T05:55:34;98152.0;;;-4.1;78.88
23361;BME280;11852;50.082;18.554;2022-11-20T05:56:41;98152.0;;;-4.1;78.87
23361;BME280;11852;50.082;18.554;2022-11-20T05:57:48;98151.0;;;-4.08;78.87
23361;BME280;11852;50.082;18.554;2022-11-20T05:58:55;98152.0;;;-4.12;78.72
23361;BME280;11852;50.082;18.554;2022-11-20T06:00:03;98150.0;;;-4.14;78.79
23361;BME280;11852;50.082;18.554;2022-11-20T06:01:17;98151.0;;;-4.14;78.79
23361;BME280;11852;50.082;18.554;2022-11-20T06:02:23;98153.0;;;-4.22;78.88
23361;BME280;11852;50.082;18.554;2022-11-20T06:03:31;98154.0;;;-4.2;78.9
23361;BME280;11852;50.082;18.554;2022-11-20T06:04:39;98152.0;;;-4.26;78.99
23361;BME280;11852;50.082;18.554;2022-11-20T06:05:46;98153.0;;;-4.28;78.96
23361;BME280;11852;50.082;18.554;2022-11-20T06:06:53;98151.0;;;-4.32;78.84
23361;BME280;11852;50.082;18.554;2022-11-20T06:08:00;98151.0;;;-4.41;78.62
23361;BME280;11852;50.082;18.554;2022-11-20T06:09:09;98153.0;;;-4.43;78.66
23361;BME280;11852;50.082;18.554;2022-11-20T06:10:16;98153.0;;;-4.42;78.76
23361;BME280;11852;50.082;18.554;2022-11-20T06:11:23;98154.0;;;-4.47;79.04